Olutanga, Philippines
Current Conditions -  °F | °C
As of 12:00 PM on Thursday 27 Nov 2014 (Local Time) from RPMZ Reporting Station
Broken Clouds Broken Clouds  
Wind Chill: 91°   Ceiling: 30000
Heat Index: 108°   Visibility: 6mi
Dew Point: 79°   Wind: 5mph
Humidity: 66%   Direction: 200°SSW
Pressure: 29.77"   Gusts: NA
Location:  7.31°N, 122.85°E
Report Text: RPMZ 270400Z 20004KT 9999 FEW018 BKN300 33/26 Q1008 RMK A2977
Loading
Personal Weather Stations






























Interactive Weather Map New forecast layout! Learn more

10-Day Weather Forecast

Advertisements
Track Severe Weather on mobile